createdAt,value
2022-08-26T00:01:44.948Z,23.17
2022-08-26T00:04:13.321Z,23.17
2022-08-26T00:06:46.159Z,23.06
2022-08-26T00:09:16.248Z,22.97
2022-08-26T00:11:44.712Z,23.02
2022-08-26T00:14:13.772Z,23.00
2022-08-26T00:16:48.146Z,23.07
2022-08-26T00:19:17.879Z,23.05
2022-08-26T00:21:48.633Z,23.05
2022-08-26T00:24:17.512Z,22.95
2022-08-26T00:26:45.295Z,22.91
2022-08-26T00:29:14.045Z,22.88
2022-08-26T00:31:42.660Z,22.74
2022-08-26T00:34:13.169Z,22.72
2022-08-26T00:36:41.767Z,22.72
2022-08-26T00:39:12.158Z,22.67
2022-08-26T00:41:40.872Z,22.65
2022-08-26T00:44:09.080Z,22.56
2022-08-26T00:46:46.410Z,22.48
2022-08-26T00:49:17.058Z,22.47
2022-08-26T00:51:47.223Z,22.45
2022-08-26T00:54:17.282Z,22.41
2022-08-26T00:56:47.714Z,22.32
2022-08-26T00:59:17.801Z,22.28
2022-08-26T01:01:45.921Z,22.23
2022-08-26T01:04:16.053Z,22.17
2022-08-26T01:06:44.423Z,22.11
2022-08-26T01:09:12.528Z,22.14
2022-08-26T01:11:41.962Z,22.12
2022-08-26T01:14:11.724Z,22.10
2022-08-26T01:16:39.377Z,22.10
2022-08-26T01:19:14.953Z,22.02
2022-08-26T01:21:45.734Z,22.09
2022-08-26T01:24:15.158Z,22.07
2022-08-26T01:26:44.658Z,22.04
2022-08-26T01:29:14.018Z,22.04
2022-08-26T01:31:45.046Z,22.03
2022-08-26T01:34:17.233Z,22.03
2022-08-26T01:36:50.629Z,21.95
2022-08-26T01:39:20.605Z,21.87
2022-08-26T01:41:53.510Z,21.89
2022-08-26T01:44:23.702Z,21.91
2022-08-26T01:46:52.326Z,21.86
2022-08-26T01:49:21.744Z,21.74
2022-08-26T01:51:51.357Z,21.72
2022-08-26T01:54:23.030Z,21.69
2022-08-26T01:56:51.882Z,21.70
2022-08-26T01:59:21.128Z,21.67
2022-08-26T02:01:49.899Z,21.57
2022-08-26T02:04:22.611Z,21.56
2022-08-26T02:06:50.840Z,21.51
2022-08-26T02:09:19.679Z,21.45
2022-08-26T02:11:51.203Z,21.47
2022-08-26T02:14:21.467Z,21.44
2022-08-26T02:16:51.365Z,21.35
2022-08-26T02:19:20.682Z,21.39
2022-08-26T02:21:51.320Z,21.32
2022-08-26T02:24:21.538Z,21.22
2022-08-26T02:26:50.703Z,21.17
2022-08-26T02:29:22.147Z,21.14
2022-08-26T02:31:49.951Z,21.08
2022-08-26T02:34:20.625Z,21.09
2022-08-26T02:36:49.276Z,21.08
2022-08-26T02:39:22.328Z,21.08
2022-08-26T02:41:51.545Z,21.04
2022-08-26T02:44:19.182Z,21.01
2022-08-26T02:46:47.393Z,20.99
2022-08-26T02:49:15.585Z,20.82
2022-08-26T02:51:44.726Z,20.87
2022-08-26T02:54:12.572Z,20.83
2022-08-26T02:56:40.548Z,20.82
2022-08-26T02:59:12.264Z,20.85
2022-08-26T03:01:40.739Z,20.84
2022-08-26T03:04:10.083Z,20.81
2022-08-26T03:06:38.179Z,20.74
2022-08-26T03:09:06.383Z,20.76
2022-08-26T03:11:34.210Z,20.75
2022-08-26T03:14:03.423Z,20.80
2022-08-26T03:16:34.216Z,20.83
2022-08-26T03:19:02.689Z,20.86
2022-08-26T03:21:30.793Z,20.84
2022-08-26T03:23:58.893Z,20.79
2022-08-26T03:26:28.249Z,20.80
2022-08-26T03:29:25.454Z,20.87
2022-08-26T03:31:55.302Z,20.88
2022-08-26T03:34:22.912Z,20.95
2022-08-26T03:36:51.163Z,20.94
2022-08-26T03:39:18.815Z,20.92
2022-08-26T03:41:46.572Z,20.89
2022-08-26T03:44:14.708Z,20.90
2022-08-26T03:46:42.364Z,20.96
2022-08-26T03:49:13.230Z,20.96
2022-08-26T03:51:42.939Z,21.00
2022-08-26T03:54:12.419Z,21.00
2022-08-26T03:56:40.236Z,20.94
2022-08-26T03:59:07.940Z,20.99
2022-08-26T04:01:35.731Z,21.03
2022-08-26T04:04:03.841Z,21.00
2022-08-26T04:06:33.976Z,20.92
2022-08-26T04:09:03.023Z,21.01
2022-08-26T04:11:34.648Z,20.96
2022-08-26T04:14:05.575Z,20.91
2022-08-26T04:16:33.388Z,20.89
2022-08-26T04:19:01.141Z,20.97
2022-08-26T04:21:29.201Z,20.89
2022-08-26T04:23:58.495Z,20.89
2022-08-26T04:26:26.231Z,20.97
2022-08-26T04:28:55.351Z,20.96
2022-08-26T04:31:24.741Z,20.92
2022-08-26T04:33:52.364Z,20.82
2022-08-26T04:36:20.999Z,20.83
2022-08-26T04:38:50.673Z,20.85
2022-08-26T04:41:20.951Z,20.87
2022-08-26T04:43:49.192Z,20.84
2022-08-26T04:46:18.441Z,20.90
2022-08-26T04:48:47.896Z,20.88
2022-08-26T04:51:15.773Z,20.83
2022-08-26T04:53:43.755Z,20.88
2022-08-26T04:56:11.401Z,20.89
2022-08-26T04:58:41.186Z,20.78
2022-08-26T05:01:09.268Z,20.76
2022-08-26T05:03:37.281Z,20.84
2022-08-26T05:06:09.456Z,20.84
2022-08-26T05:08:37.917Z,20.88
2022-08-26T05:11:06.706Z,20.89
2022-08-26T05:13:38.915Z,20.89
2022-08-26T05:16:09.613Z,20.97
2022-08-26T05:18:39.567Z,20.89
2022-08-26T05:21:09.022Z,20.88
2022-08-26T05:23:37.253Z,20.92
2022-08-26T05:26:08.076Z,20.93
2022-08-26T05:28:36.057Z,20.99
2022-08-26T05:31:12.126Z,20.98
2022-08-26T05:33:41.316Z,21.06
2022-08-26T05:36:09.956Z,21.09
2022-08-26T05:38:39.180Z,21.08
2022-08-26T05:41:15.130Z,21.02
2022-08-26T05:43:44.609Z,21.00
2022-08-26T05:46:13.772Z,21.03
2022-08-26T05:48:44.336Z,21.10
2022-08-26T05:51:12.659Z,21.05
2022-08-26T05:53:43.789Z,21.07
2022-08-26T05:56:12.457Z,21.03
2022-08-26T05:58:41.352Z,20.96
2022-08-26T06:01:12.115Z,21.06
2022-08-26T06:03:42.489Z,21.08
2022-08-26T06:06:11.324Z,21.12
2022-08-26T06:08:39.169Z,21.19
2022-08-26T06:11:10.780Z,21.24
2022-08-26T06:13:46.813Z,21.23
2022-08-26T06:16:17.718Z,21.30
2022-08-26T06:18:47.680Z,21.36
2022-08-26T06:21:17.524Z,21.34
2022-08-26T06:24:03.163Z,21.34
2022-08-26T06:26:30.817Z,21.41
2022-08-26T06:28:58.720Z,21.43
2022-08-26T06:31:27.605Z,21.51
2022-08-26T06:33:58.292Z,21.42
2022-08-26T06:36:27.626Z,21.43
2022-08-26T06:38:56.756Z,21.51
2022-08-26T06:41:24.544Z,21.56
2022-08-26T06:43:52.751Z,21.61
2022-08-26T06:46:21.696Z,21.66
2022-08-26T06:48:49.664Z,21.65
2022-08-26T06:51:20.469Z,21.64
2022-08-26T06:53:52.177Z,21.68
2022-08-26T06:56:20.464Z,21.58
2022-08-26T06:58:48.708Z,21.63
2022-08-26T07:01:17.257Z,21.79
2022-08-26T07:03:46.504Z,21.87
2022-08-26T07:06:14.682Z,21.88
2022-08-26T07:08:45.567Z,21.91
2022-08-26T07:11:13.386Z,21.92
2022-08-26T07:13:41.043Z,21.79
2022-08-26T07:16:12.711Z,21.84
2022-08-26T07:18:42.537Z,22.03
2022-08-26T07:21:14.297Z,22.15
2022-08-26T07:23:42.064Z,22.17
2022-08-26T07:26:12.589Z,22.06
2022-08-26T07:28:40.276Z,21.96
2022-08-26T07:31:09.625Z,22.08
2022-08-26T07:33:39.195Z,22.09
2022-08-26T07:36:07.625Z,22.09
2022-08-26T07:38:35.941Z,22.03
2022-08-26T07:41:03.782Z,22.12
2022-08-26T07:43:33.819Z,22.14
2022-08-26T07:46:02.718Z,22.11
2022-08-26T07:48:30.465Z,22.24
2022-08-26T07:50:58.485Z,22.30
2022-08-26T07:53:26.365Z,22.46
2022-08-26T07:55:54.372Z,22.49
2022-08-26T07:58:21.998Z,22.49
2022-08-26T08:00:51.007Z,22.55
2022-08-26T08:03:21.623Z,22.44
2022-08-26T08:05:49.897Z,22.33
2022-08-26T08:08:27.145Z,22.22
2022-08-26T08:10:56.239Z,22.22
2022-08-26T08:13:24.261Z,22.32
2022-08-26T08:15:53.255Z,22.38
2022-08-26T08:18:20.925Z,22.47
2022-08-26T08:21:04.643Z,22.51
2022-08-26T08:23:33.335Z,22.49
2022-08-26T08:26:01.756Z,22.58
2022-08-26T08:28:29.511Z,22.48
2022-08-26T08:30:58.800Z,22.46
2022-08-26T08:33:27.336Z,22.51
2022-08-26T08:35:55.363Z,22.56
2022-08-26T08:38:22.974Z,22.48
2022-08-26T08:40:51.928Z,22.70
2022-08-26T08:43:26.032Z,22.69
2022-08-26T08:45:55.487Z,22.70
2022-08-26T08:48:27.900Z,22.77
2022-08-26T08:50:57.446Z,22.75
2022-08-26T08:53:30.132Z,22.54
2022-08-26T08:56:01.960Z,22.52
2022-08-26T08:58:36.139Z,22.47
2022-08-26T09:01:05.981Z,22.43
2022-08-26T09:03:41.332Z,22.41
2022-08-26T09:06:16.978Z,22.36
2022-08-26T09:08:46.654Z,22.49
2022-08-26T09:11:18.951Z,22.48
2022-08-26T09:13:49.338Z,22.45
2022-08-26T09:16:19.175Z,22.50
2022-08-26T09:18:54.892Z,22.62
2022-08-26T09:21:25.234Z,22.63
2022-08-26T09:23:55.379Z,22.59
2022-08-26T09:26:29.354Z,22.63
2022-08-26T09:28:59.392Z,22.68
2022-08-26T09:31:28.594Z,22.72
2022-08-26T09:34:18.197Z,22.72
2022-08-26T09:36:47.863Z,22.77
2022-08-26T09:39:30.030Z,22.81
2022-08-26T09:42:06.382Z,22.82
2022-08-26T09:44:35.546Z,22.76
2022-08-26T09:47:05.536Z,22.76
2022-08-26T09:49:36.586Z,22.94
2022-08-26T09:52:06.362Z,23.09
2022-08-26T09:54:34.036Z,23.02
2022-08-26T09:57:12.137Z,22.98
2022-08-26T09:59:39.704Z,22.81
2022-08-26T10:02:18.672Z,22.72
2022-08-26T10:04:54.116Z,22.83
2022-08-26T10:07:35.593Z,22.75
2022-08-26T10:10:05.671Z,22.96
2022-08-26T10:12:35.051Z,22.79
2022-08-26T10:15:09.184Z,22.87
2022-08-26T10:17:39.797Z,22.87
2022-08-26T10:20:22.974Z,22.87
2022-08-26T10:22:56.411Z,22.75
2022-08-26T10:25:26.029Z,22.90
2022-08-26T10:28:00.007Z,22.86
2022-08-26T10:30:31.528Z,22.84
2022-08-26T10:33:03.620Z,23.00
2022-08-26T10:35:34.326Z,22.84
2022-08-26T10:38:04.296Z,22.85
2022-08-26T10:40:38.116Z,22.77
2022-08-26T10:43:11.437Z,22.95
2022-08-26T10:45:40.111Z,23.00
2022-08-26T10:48:12.201Z,23.00
2022-08-26T10:50:42.956Z,23.07
2022-08-26T10:53:14.755Z,23.15
2022-08-26T10:55:50.135Z,23.29
2022-08-26T10:58:27.824Z,23.30
2022-08-26T11:01:17.130Z,23.51
2022-08-26T11:03:55.064Z,23.33
2022-08-26T11:06:28.717Z,23.09
2022-08-26T11:08:58.240Z,23.33
2022-08-26T11:11:45.276Z,23.39
2022-08-26T11:14:31.360Z,23.29
2022-08-26T11:17:01.967Z,23.26
2022-08-26T11:20:00.786Z,23.32
2022-08-26T11:22:32.166Z,23.48
2022-08-26T11:25:05.053Z,23.37
2022-08-26T11:28:03.324Z,23.32
2022-08-26T11:30:37.044Z,23.51
2022-08-26T11:33:05.989Z,23.50
2022-08-26T11:35:47.651Z,23.46
2022-08-26T11:38:19.454Z,23.46
2022-08-26T11:43:18.574Z,23.70
2022-08-26T11:45:47.345Z,24.08
2022-08-26T11:48:15.857Z,24.34
2022-08-26T11:50:53.473Z,24.74
2022-08-26T11:53:23.007Z,24.70
2022-08-26T11:55:52.504Z,25.00
2022-08-26T11:58:22.368Z,24.85
2022-08-26T12:00:51.833Z,24.45
2022-08-26T12:03:22.147Z,24.55
2022-08-26T12:05:52.223Z,24.57
2022-08-26T12:08:21.425Z,24.87
2022-08-26T12:10:50.639Z,24.75
2022-08-26T12:13:21.834Z,24.60
2022-08-26T12:15:53.291Z,24.87
2022-08-26T12:18:29.005Z,25.00
2022-08-26T12:20:59.275Z,25.12
2022-08-26T12:23:28.982Z,25.28
2022-08-26T12:26:05.828Z,25.61
2022-08-26T12:28:33.871Z,25.61
2022-08-26T12:31:02.321Z,25.45
2022-08-26T12:33:31.069Z,25.05
2022-08-26T12:36:00.625Z,24.96
2022-08-26T12:38:29.007Z,24.69
2022-08-26T12:40:57.015Z,24.61
2022-08-26T12:43:39.599Z,24.69
2022-08-26T12:46:08.877Z,24.77
2022-08-26T12:48:38.425Z,24.52
2022-08-26T12:51:08.288Z,24.54
2022-08-26T12:53:41.698Z,24.70
2022-08-26T12:56:20.374Z,24.37
2022-08-26T12:59:00.756Z,24.16
2022-08-26T13:01:28.782Z,23.81
2022-08-26T13:03:56.622Z,23.99
2022-08-26T13:06:29.751Z,23.86
2022-08-26T13:08:58.103Z,24.05
2022-08-26T13:11:27.711Z,24.12
2022-08-26T13:13:59.345Z,24.09
2022-08-26T13:16:27.383Z,24.09
2022-08-26T13:18:56.415Z,23.93
2022-08-26T13:21:25.461Z,24.01
2022-08-26T13:23:53.877Z,23.90
2022-08-26T13:26:22.345Z,23.87
2022-08-26T13:29:01.158Z,23.92
2022-08-26T13:31:32.227Z,24.08
2022-08-26T13:34:01.514Z,24.25
2022-08-26T13:36:29.175Z,24.34
2022-08-26T13:38:56.802Z,24.32
2022-08-26T13:41:29.121Z,24.05
2022-08-26T13:43:58.894Z,23.75
2022-08-26T13:46:27.836Z,23.80
2022-08-26T13:48:57.138Z,23.89
2022-08-26T13:51:25.177Z,23.96
2022-08-26T13:53:53.123Z,24.17
2022-08-26T13:56:21.415Z,24.03
2022-08-26T13:58:49.549Z,23.93
2022-08-26T14:01:18.270Z,24.12
2022-08-26T14:03:47.053Z,24.08
2022-08-26T14:06:16.140Z,24.16
2022-08-26T14:08:44.231Z,24.09
2022-08-26T14:11:12.035Z,24.02
2022-08-26T14:13:40.404Z,24.20
2022-08-26T14:16:09.973Z,24.33
2022-08-26T14:18:42.135Z,24.25
2022-08-26T14:21:12.440Z,24.12
2022-08-26T14:23:41.639Z,24.31
2022-08-26T14:26:11.045Z,24.40
2022-08-26T14:28:55.792Z,24.63
2022-08-26T14:31:24.421Z,24.61
2022-08-26T14:33:52.143Z,24.55
2022-08-26T14:36:32.675Z,24.72
2022-08-26T14:39:03.806Z,24.96
2022-08-26T14:41:32.141Z,24.63
2022-08-26T14:44:01.120Z,24.49
2022-08-26T14:46:29.577Z,24.67
2022-08-26T14:49:01.651Z,24.80
2022-08-26T14:51:29.757Z,24.47
2022-08-26T14:54:16.169Z,24.33
2022-08-26T14:56:46.426Z,24.33
2022-08-26T14:59:14.124Z,24.17
2022-08-26T15:01:41.927Z,23.94
2022-08-26T15:04:09.616Z,24.03
2022-08-26T15:06:38.152Z,24.00
2022-08-26T15:09:05.801Z,23.78
2022-08-26T15:11:33.463Z,23.83
2022-08-26T15:14:02.574Z,23.72
2022-08-26T15:16:30.204Z,23.62
2022-08-26T15:18:57.945Z,23.76
2022-08-26T15:21:26.997Z,23.78
2022-08-26T15:23:55.455Z,24.06
2022-08-26T15:26:23.517Z,23.96
2022-08-26T15:28:51.522Z,23.83
2022-08-26T15:31:20.629Z,23.93
2022-08-26T15:33:49.225Z,23.82
2022-08-26T15:36:16.818Z,23.77
2022-08-26T15:38:44.635Z,24.00
2022-08-26T15:41:14.726Z,24.03
2022-08-26T15:43:44.085Z,24.01
2022-08-26T15:46:12.717Z,23.95
2022-08-26T15:48:41.930Z,24.04
2022-08-26T15:51:19.575Z,23.98
2022-08-26T15:53:47.190Z,23.83
2022-08-26T15:56:15.040Z,23.91
2022-08-26T15:58:42.719Z,23.89
2022-08-26T16:01:12.395Z,23.79
2022-08-26T16:03:41.663Z,23.83
2022-08-26T16:06:09.429Z,23.83
2022-08-26T16:08:37.355Z,23.78
2022-08-26T16:11:05.842Z,23.87
2022-08-26T16:13:39.858Z,23.80
2022-08-26T16:16:08.136Z,23.77
2022-08-26T16:18:35.900Z,23.80
2022-08-26T16:21:13.590Z,23.86
2022-08-26T16:23:45.082Z,23.77
2022-08-26T16:26:14.200Z,23.73
2022-08-26T16:28:42.083Z,23.69
2022-08-26T16:31:11.446Z,23.48
2022-08-26T16:33:39.187Z,23.47
2022-08-26T16:36:09.197Z,23.42
2022-08-26T16:38:37.553Z,23.32
2022-08-26T16:41:05.380Z,23.26
2022-08-26T16:43:33.104Z,23.28
2022-08-26T16:46:00.773Z,23.21
2022-08-26T16:48:28.735Z,23.23
2022-08-26T16:50:56.403Z,23.29
2022-08-26T16:53:25.360Z,23.18
2022-08-26T16:55:52.954Z,23.02
2022-08-26T16:58:22.264Z,23.08
2022-08-26T17:00:50.240Z,23.11
2022-08-26T17:03:18.264Z,23.18
2022-08-26T17:05:45.885Z,23.04
2022-08-26T17:08:24.378Z,23.11
2022-08-26T17:10:59.723Z,23.10
2022-08-26T17:13:35.596Z,23.03
2022-08-26T17:16:04.885Z,22.96
2022-08-26T17:18:33.284Z,22.94
2022-08-26T17:21:02.061Z,22.91
2022-08-26T17:23:29.755Z,22.97
2022-08-26T17:25:58.764Z,22.85
2022-08-26T17:28:26.423Z,22.86
2022-08-26T17:30:56.288Z,22.88
2022-08-26T17:33:24.604Z,22.86
2022-08-26T17:35:53.546Z,22.87
2022-08-26T17:38:21.774Z,22.82
2022-08-26T17:40:49.587Z,22.83
2022-08-26T17:43:18.634Z,22.85
2022-08-26T17:45:46.812Z,22.81
2022-08-26T17:48:14.699Z,22.73
2022-08-26T17:50:43.464Z,22.62
2022-08-26T17:53:19.211Z,22.60
2022-08-26T17:55:47.625Z,22.51
2022-08-26T17:58:16.549Z,22.54
2022-08-26T18:00:46.313Z,22.50
2022-08-26T18:03:14.176Z,22.41
2022-08-26T18:05:42.500Z,22.43
2022-08-26T18:08:10.902Z,22.32
2022-08-26T18:10:38.515Z,22.34
2022-08-26T18:13:06.565Z,22.33
2022-08-26T18:15:34.226Z,22.26
2022-08-26T18:18:03.261Z,22.34
2022-08-26T18:20:30.913Z,22.39
2022-08-26T18:22:58.856Z,22.36
2022-08-26T18:25:26.614Z,22.38
2022-08-26T18:27:54.243Z,22.28
2022-08-26T18:30:22.406Z,22.21
2022-08-26T18:32:50.308Z,22.21
2022-08-26T18:35:21.071Z,22.13
2022-08-26T18:37:49.289Z,22.18
2022-08-26T18:40:17.141Z,22.22
2022-08-26T18:42:44.982Z,22.11
2022-08-26T18:45:17.621Z,22.10
2022-08-26T18:47:45.246Z,22.15
2022-08-26T18:50:12.950Z,22.08
2022-08-26T18:52:41.978Z,22.07
2022-08-26T18:55:09.763Z,22.00
2022-08-26T18:57:37.373Z,21.96
2022-08-26T19:00:05.861Z,21.82
2022-08-26T19:02:34.309Z,21.90
2022-08-26T19:05:02.324Z,21.86
2022-08-26T19:07:30.051Z,21.79
2022-08-26T19:09:59.088Z,21.75
2022-08-26T19:12:27.181Z,21.73
2022-08-26T19:14:54.877Z,21.73
2022-08-26T19:17:22.557Z,21.72
2022-08-26T19:19:50.558Z,21.72
2022-08-26T19:22:19.792Z,21.76
2022-08-26T19:24:47.468Z,21.63
2022-08-26T19:27:16.627Z,21.73
2022-08-26T19:29:44.435Z,21.76
2022-08-26T19:32:13.017Z,21.70
2022-08-26T19:34:40.626Z,21.73
2022-08-26T19:37:08.302Z,21.67
2022-08-26T19:39:36.124Z,21.70
2022-08-26T19:42:04.087Z,21.66
2022-08-26T19:44:50.856Z,21.61
2022-08-26T19:47:18.778Z,21.64
2022-08-26T19:49:46.729Z,21.61
2022-08-26T19:52:14.822Z,21.57
2022-08-26T19:54:42.531Z,21.57
2022-08-26T19:57:10.304Z,21.52
2022-08-26T19:59:40.480Z,21.44
2022-08-26T20:02:11.008Z,21.40
2022-08-26T20:04:39.482Z,21.43
2022-08-26T20:07:07.141Z,21.41
2022-08-26T20:09:35.047Z,21.40
2022-08-26T20:12:04.047Z,21.30
2022-08-26T20:14:31.689Z,21.36
2022-08-26T20:17:00.750Z,21.41
2022-08-26T20:19:46.280Z,21.42
2022-08-26T20:22:14.409Z,21.41
2022-08-26T20:24:42.027Z,21.35
2022-08-26T20:27:09.729Z,21.36
2022-08-26T20:29:37.383Z,21.40
2022-08-26T20:32:07.678Z,21.32
2022-08-26T20:34:36.022Z,21.31
2022-08-26T20:37:04.243Z,21.29
2022-08-26T20:39:32.404Z,21.35
2022-08-26T20:42:00.115Z,21.33
2022-08-26T20:44:28.003Z,21.23
2022-08-26T20:46:56.571Z,21.21
2022-08-26T20:49:25.603Z,21.19
2022-08-26T20:51:53.833Z,21.22
2022-08-26T20:54:26.220Z,21.24
2022-08-26T20:56:56.110Z,21.11
2022-08-26T20:59:24.352Z,21.15
2022-08-26T21:01:52.218Z,21.09
2022-08-26T21:04:20.803Z,21.11
2022-08-26T21:06:50.811Z,21.13
2022-08-26T21:09:21.264Z,21.05
2022-08-26T21:11:49.509Z,21.06
2022-08-26T21:14:17.534Z,20.96
2022-08-26T21:16:45.853Z,20.97
2022-08-26T21:19:14.919Z,21.02
2022-08-26T21:21:42.725Z,21.08
2022-08-26T21:24:12.106Z,21.10
2022-08-26T21:26:39.733Z,21.10
2022-08-26T21:29:09.469Z,21.03
2022-08-26T21:31:41.003Z,21.01
2022-08-26T21:34:12.674Z,20.98
2022-08-26T21:36:40.314Z,20.97
2022-08-26T21:39:11.814Z,20.95
2022-08-26T21:41:42.020Z,20.90
2022-08-26T21:44:10.026Z,20.87
2022-08-26T21:46:37.659Z,20.84
2022-08-26T21:49:07.350Z,20.83
2022-08-26T21:51:36.356Z,20.71
2022-08-26T21:54:10.528Z,20.69
2022-08-26T21:56:40.480Z,20.73
2022-08-26T21:59:09.626Z,20.75
2022-08-26T22:01:37.853Z,20.72
2022-08-26T22:04:06.810Z,20.75
2022-08-26T22:06:35.491Z,20.65
2022-08-26T22:09:03.211Z,20.56
2022-08-26T22:11:32.507Z,20.56
2022-08-26T22:14:00.242Z,20.50
2022-08-26T22:16:29.827Z,20.54
2022-08-26T22:18:57.708Z,20.53
2022-08-26T22:21:26.986Z,20.45
2022-08-26T22:23:58.212Z,20.35
2022-08-26T22:26:27.722Z,20.27
2022-08-26T22:28:58.725Z,20.34
2022-08-26T22:31:27.950Z,20.26
2022-08-26T22:33:58.805Z,20.26
2022-08-26T22:36:27.831Z,19.98
2022-08-26T22:38:55.979Z,20.01
2022-08-26T22:41:24.121Z,19.97
2022-08-26T22:43:52.628Z,19.97
2022-08-26T22:46:21.002Z,20.03
2022-08-26T22:48:50.284Z,20.07
2022-08-26T22:51:23.231Z,20.05
2022-08-26T22:53:50.857Z,20.03
2022-08-26T22:56:21.108Z,19.99
2022-08-26T22:58:49.063Z,19.87
2022-08-26T23:01:17.114Z,19.80
2022-08-26T23:03:45.876Z,19.89
2022-08-26T23:06:13.747Z,19.83
2022-08-26T23:08:45.215Z,19.78
2022-08-26T23:11:13.604Z,19.74
2022-08-26T23:13:41.380Z,19.72
2022-08-26T23:16:10.286Z,19.63
2022-08-26T23:18:38.542Z,19.59
2022-08-26T23:21:06.761Z,19.51
2022-08-26T23:23:35.178Z,19.52
2022-08-26T23:26:06.179Z,19.49
2022-08-26T23:28:34.168Z,19.45
2022-08-26T23:31:01.807Z,19.52
2022-08-26T23:33:49.664Z,19.43
2022-08-26T23:36:17.981Z,19.41
2022-08-26T23:38:52.369Z,19.36
2022-08-26T23:41:22.302Z,19.26
2022-08-26T23:43:50.073Z,19.29
2022-08-26T23:46:18.131Z,19.25
2022-08-26T23:48:45.914Z,19.23
2022-08-26T23:51:30.962Z,19.35
2022-08-26T23:53:58.911Z,19.47
2022-08-26T23:56:29.062Z,19.38
2022-08-26T23:58:56.656Z,19.26
